createdAt,value
2018-12-04T00:27:24.141Z,1001.82
2018-12-04T00:27:24.717Z,1001.84
2018-12-04T00:27:25.316Z,1001.84
2018-12-04T00:27:25.916Z,1001.78
2018-12-04T00:27:26.516Z,1001.77
2018-12-04T00:27:27.119Z,1001.81
2018-12-04T00:27:27.716Z,1001.79
2018-12-04T00:27:28.317Z,1001.81
2018-12-04T00:28:21.794Z,1001.81
2018-12-04T00:28:22.382Z,1001.82
2018-12-04T00:28:22.969Z,1001.83
2018-12-04T00:28:23.569Z,1001.82
2018-12-04T00:28:24.170Z,1001.83
2018-12-04T00:28:24.770Z,1001.83
2018-12-04T00:28:25.370Z,1001.83
2018-12-04T00:28:25.968Z,1001.83
2018-12-04T00:29:20.471Z,1001.85
2018-12-04T00:29:21.050Z,1001.92
2018-12-04T00:29:21.646Z,1001.90
2018-12-04T00:29:22.246Z,1001.87
2018-12-04T00:29:22.849Z,1001.85
2018-12-04T00:29:23.447Z,1001.89
2018-12-04T00:29:24.044Z,1001.86
2018-12-04T00:29:24.644Z,1001.90
2018-12-04T00:30:18.123Z,1001.84
2018-12-04T00:30:18.701Z,1001.88
2018-12-04T00:30:19.299Z,1001.87
2018-12-04T00:30:19.899Z,1001.90
2018-12-04T00:30:20.499Z,1001.85
2018-12-04T00:30:21.099Z,1001.87
2018-12-04T00:30:21.699Z,1001.84
2018-12-04T00:30:22.298Z,1001.85
2018-12-04T00:31:15.774Z,1001.87
2018-12-04T00:31:16.352Z,1001.88
2018-12-04T00:31:16.951Z,1001.83
2018-12-04T00:31:17.550Z,1001.86
2018-12-04T00:31:18.152Z,1001.91
2018-12-04T00:31:18.751Z,1001.90
2018-12-04T00:31:19.350Z,1001.90
2018-12-04T00:31:19.951Z,1001.88
2018-12-04T00:32:13.428Z,1001.91
2018-12-04T00:32:14.003Z,1001.89
2018-12-04T00:32:14.602Z,1001.92
2018-12-04T00:32:15.205Z,1001.94
2018-12-04T00:32:15.803Z,1001.88
2018-12-04T00:32:16.402Z,1001.93
2018-12-04T00:32:17.008Z,1001.90
2018-12-04T00:32:17.604Z,1001.92
2018-12-04T00:33:12.104Z,1001.96
2018-12-04T00:33:12.678Z,1001.94
2018-12-04T00:33:13.278Z,1001.92
2018-12-04T00:33:13.877Z,1001.91
2018-12-04T00:33:14.478Z,1001.95
2018-12-04T00:33:15.077Z,1001.92
2018-12-04T00:33:15.678Z,1001.96
2018-12-04T00:33:16.276Z,1001.93
2018-12-04T00:34:10.779Z,1001.89
2018-12-04T00:34:11.355Z,1001.89
2018-12-04T00:34:11.955Z,1001.92
2018-12-04T00:34:12.553Z,1001.94
2018-12-04T00:34:13.154Z,1001.94
2018-12-04T00:34:13.753Z,1001.92
2018-12-04T00:34:14.354Z,1001.91
2018-12-04T00:34:14.954Z,1001.96
2018-12-04T00:35:08.431Z,1001.98
2018-12-04T00:35:09.007Z,1001.94
2018-12-04T00:35:09.607Z,1001.94
2018-12-04T00:35:10.206Z,1001.95
2018-12-04T00:35:10.807Z,1001.98
2018-12-04T00:35:11.411Z,1001.97
2018-12-04T00:35:12.008Z,1001.92
2018-12-04T00:35:12.607Z,1001.95
2018-12-04T00:36:06.085Z,1001.96
2018-12-04T00:36:06.660Z,1001.97
2018-12-04T00:36:07.260Z,1001.93
2018-12-04T00:36:07.858Z,1001.96
2018-12-04T00:36:08.461Z,1001.99
2018-12-04T00:36:09.058Z,1001.96
2018-12-04T00:36:09.659Z,1002.00
2018-12-04T00:36:10.259Z,1001.95
2018-12-04T00:37:03.737Z,1001.94
2018-12-04T00:37:04.311Z,1001.94
2018-12-04T00:37:04.911Z,1001.97
2018-12-04T00:37:05.510Z,1001.95
2018-12-04T00:37:06.121Z,1001.93
2018-12-04T00:37:06.711Z,1001.89
2018-12-04T00:37:07.309Z,1001.96
2018-12-04T00:37:07.910Z,1001.91
2018-12-04T00:38:02.420Z,1001.97
2018-12-04T00:38:02.985Z,1001.99
2018-12-04T00:38:03.584Z,1001.95
2018-12-04T00:38:04.185Z,1002.01
2018-12-04T00:38:04.783Z,1001.98
2018-12-04T00:38:05.383Z,1002.01
2018-12-04T00:38:05.984Z,1002.00
2018-12-04T00:38:06.584Z,1002.01
2018-12-04T00:39:00.063Z,1002.05
2018-12-04T00:39:01.740Z,1002.03
2018-12-04T00:39:01.846Z,1002.07
2018-12-04T00:39:01.936Z,1002.04
2018-12-04T00:39:02.442Z,1002.05
2018-12-04T00:39:03.039Z,1002.06
2018-12-04T00:39:03.639Z,1002.06
2018-12-04T00:39:04.241Z,1002.03
2018-12-04T00:39:58.740Z,1002.04
2018-12-04T00:39:59.312Z,1002.04
2018-12-04T00:39:59.914Z,1002.08
2018-12-04T00:40:00.516Z,1002.05
2018-12-04T00:40:01.114Z,1002.04
2018-12-04T00:40:01.752Z,1002.06
2018-12-04T00:40:02.314Z,1002.06
2018-12-04T00:40:02.912Z,1002.02
2018-12-04T00:40:57.421Z,1002.05
2018-12-04T00:40:57.990Z,1002.09
2018-12-04T00:40:58.589Z,1002.06
2018-12-04T00:40:59.189Z,1002.06
2018-12-04T00:40:59.790Z,1002.07
2018-12-04T00:41:00.388Z,1002.07
2018-12-04T00:41:00.989Z,1002.04
2018-12-04T00:41:01.590Z,1002.08
2018-12-04T00:41:56.091Z,1002.20
2018-12-04T00:41:56.664Z,1002.22
2018-12-04T00:41:57.265Z,1002.22
2018-12-04T00:41:57.865Z,1002.19
2018-12-04T00:41:58.466Z,1002.22
2018-12-04T00:41:59.064Z,1002.21
2018-12-04T00:41:59.664Z,1002.21
2018-12-04T00:42:00.264Z,1002.18
2018-12-04T00:42:53.742Z,1002.20
2018-12-04T00:42:54.319Z,1002.22
2018-12-04T00:42:54.918Z,1002.20
2018-12-04T00:42:55.518Z,1002.17
2018-12-04T00:42:56.121Z,1002.20
2018-12-04T00:42:56.716Z,1002.17
2018-12-04T00:42:57.317Z,1002.19
2018-12-04T00:42:57.916Z,1002.22
2018-12-04T00:43:52.420Z,1002.24
2018-12-04T00:43:52.992Z,1002.23
2018-12-04T00:43:53.592Z,1002.27
2018-12-04T00:43:54.193Z,1002.27
2018-12-04T00:43:54.793Z,1002.23
2018-12-04T00:43:55.392Z,1002.22
2018-12-04T00:43:55.991Z,1002.24
2018-12-04T00:43:56.592Z,1002.23
2018-12-04T00:44:50.069Z,1002.29
2018-12-04T00:44:50.646Z,1002.31
2018-12-04T00:44:51.250Z,1002.34
2018-12-04T00:44:51.847Z,1002.33
2018-12-04T00:44:52.445Z,1002.33
2018-12-04T00:44:53.044Z,1002.31
2018-12-04T00:44:53.645Z,1002.29
2018-12-04T00:44:54.245Z,1002.26
2018-12-04T00:45:47.722Z,1002.31
2018-12-04T00:45:48.297Z,1002.29
2018-12-04T00:45:48.896Z,1002.29
2018-12-04T00:45:49.496Z,1002.31
2018-12-04T00:45:50.096Z,1002.26
2018-12-04T00:45:50.696Z,1002.28
2018-12-04T00:45:51.296Z,1002.31
2018-12-04T00:45:51.895Z,1002.27
2018-12-04T00:46:45.374Z,1002.28
2018-12-04T00:46:45.950Z,1002.29
2018-12-04T00:46:46.548Z,1002.30
2018-12-04T00:46:47.149Z,1002.29
2018-12-04T00:46:47.749Z,1002.26
2018-12-04T00:46:48.349Z,1002.30
2018-12-04T00:46:48.948Z,1002.31
2018-12-04T00:46:49.549Z,1002.30
2018-12-04T00:47:44.053Z,1002.30
2018-12-04T00:47:44.625Z,1002.31
2018-12-04T00:47:45.224Z,1002.35
2018-12-04T00:47:45.823Z,1002.34
2018-12-04T00:47:46.424Z,1002.33
2018-12-04T00:47:47.030Z,1002.34
2018-12-04T00:47:47.623Z,1002.36
2018-12-04T00:47:48.223Z,1002.37
2018-12-04T00:48:41.701Z,1002.39
2018-12-04T00:48:42.276Z,1002.38
2018-12-04T00:48:42.877Z,1002.38
2018-12-04T00:48:43.479Z,1002.40
2018-12-04T00:48:44.075Z,1002.36
2018-12-04T00:48:44.674Z,1002.38
2018-12-04T00:48:45.275Z,1002.36
2018-12-04T00:48:45.874Z,1002.39
2018-12-04T00:49:39.362Z,1002.39
2018-12-04T00:49:39.930Z,1002.40
2018-12-04T00:49:40.528Z,1002.39
2018-12-04T00:49:41.128Z,1002.42
2018-12-04T00:49:41.727Z,1002.43
2018-12-04T00:49:42.327Z,1002.41
2018-12-04T00:49:42.927Z,1002.39
2018-12-04T00:49:43.528Z,1002.39
2018-12-04T00:50:37.004Z,1002.39
2018-12-04T00:50:37.579Z,1002.39
2018-12-04T00:50:38.178Z,1002.40
2018-12-04T00:50:38.779Z,1002.42
2018-12-04T00:50:39.378Z,1002.45
2018-12-04T00:50:39.979Z,1002.43
2018-12-04T00:50:40.577Z,1002.46
2018-12-04T00:50:41.180Z,1002.44
2018-12-04T00:51:35.681Z,1002.43
2018-12-04T00:51:36.255Z,1002.45
2018-12-04T00:51:36.855Z,1002.47
2018-12-04T00:51:37.457Z,1002.48
2018-12-04T00:51:38.054Z,1002.46
2018-12-04T00:51:38.653Z,1002.49
2018-12-04T00:51:39.254Z,1002.47
2018-12-04T00:51:39.853Z,1002.47
2018-12-04T00:52:33.339Z,1002.49
2018-12-04T00:52:33.906Z,1002.51
2018-12-04T00:52:34.507Z,1002.46
2018-12-04T00:52:35.145Z,1002.47
2018-12-04T00:52:35.707Z,1002.48
2018-12-04T00:52:36.307Z,1002.49
2018-12-04T00:52:36.905Z,1002.50
2018-12-04T00:52:37.505Z,1002.50
2018-12-04T00:53:32.009Z,1002.52
2018-12-04T00:53:32.583Z,1002.52
2018-12-04T00:53:33.182Z,1002.54
2018-12-04T00:53:33.783Z,1002.50
2018-12-04T00:53:34.381Z,1002.48
2018-12-04T00:53:34.981Z,1002.49
2018-12-04T00:53:35.582Z,1002.52
2018-12-04T00:53:36.182Z,1002.51
2018-12-04T00:54:29.659Z,1002.54
2018-12-04T00:54:30.233Z,1002.53
2018-12-04T00:54:30.836Z,1002.56
2018-12-04T00:54:31.434Z,1002.55
2018-12-04T00:54:32.034Z,1002.54
2018-12-04T00:54:32.635Z,1002.56
2018-12-04T00:54:33.234Z,1002.55
2018-12-04T00:54:33.834Z,1002.53
2018-12-04T00:55:28.337Z,1002.54
2018-12-04T00:55:28.916Z,1002.56
2018-12-04T00:55:29.531Z,1002.57
2018-12-04T00:55:30.112Z,1002.57
2018-12-04T00:55:30.710Z,1002.56
2018-12-04T00:55:31.309Z,1002.53
2018-12-04T00:55:31.908Z,1002.55
2018-12-04T00:55:32.508Z,1002.58
2018-12-04T00:56:25.987Z,1002.59
2018-12-04T00:56:26.562Z,1002.58
2018-12-04T00:56:27.162Z,1002.63
2018-12-04T00:56:27.763Z,1002.61
2018-12-04T00:56:28.362Z,1002.62
2018-12-04T00:56:28.961Z,1002.63
2018-12-04T00:56:29.563Z,1002.59
2018-12-04T00:56:30.164Z,1002.61
2018-12-04T00:57:24.663Z,1002.64
2018-12-04T00:57:25.238Z,1002.66
2018-12-04T00:57:25.837Z,1002.68
2018-12-04T00:57:26.436Z,1002.64
2018-12-04T00:57:27.036Z,1002.68
2018-12-04T00:57:27.635Z,1002.62
2018-12-04T00:57:28.239Z,1002.70
2018-12-04T00:57:28.835Z,1002.65
2018-12-04T00:58:22.314Z,1002.70
2018-12-04T00:58:22.889Z,1002.68
2018-12-04T00:58:23.539Z,1002.67
2018-12-04T00:58:24.089Z,1002.66
2018-12-04T00:58:24.690Z,1002.68
2018-12-04T00:58:25.289Z,1002.73
2018-12-04T00:58:25.888Z,1002.72
2018-12-04T00:58:26.487Z,1002.70
2018-12-04T00:59:19.966Z,1002.77
2018-12-04T00:59:20.540Z,1002.75
2018-12-04T00:59:21.140Z,1002.72
2018-12-04T00:59:21.740Z,1002.75
2018-12-04T00:59:22.340Z,1002.76
2018-12-04T00:59:22.941Z,1002.78
2018-12-04T00:59:23.542Z,1002.76
2018-12-04T00:59:24.140Z,1002.75
2018-12-04T01:00:18.643Z,1002.74
2018-12-04T01:00:19.216Z,1002.71
2018-12-04T01:00:19.817Z,1002.74
2018-12-04T01:00:20.416Z,1002.76
2018-12-04T01:00:21.018Z,1002.76
2018-12-04T01:00:21.616Z,1002.74
2018-12-04T01:00:22.217Z,1002.73
2018-12-04T01:00:22.815Z,1002.77
2018-12-04T01:01:16.294Z,1002.83
2018-12-04T01:01:16.868Z,1002.83
2018-12-04T01:01:17.468Z,1002.73
2018-12-04T01:01:18.070Z,1002.80
2018-12-04T01:01:18.668Z,1002.79
2018-12-04T01:01:19.270Z,1002.75
2018-12-04T01:01:19.867Z,1002.77
2018-12-04T01:01:20.510Z,1002.82
2018-12-04T01:02:13.944Z,1002.78
2018-12-04T01:02:14.520Z,1002.81
2018-12-04T01:02:15.120Z,1002.81
2018-12-04T01:02:15.721Z,1002.79
2018-12-04T01:02:16.321Z,1002.79
2018-12-04T01:02:16.920Z,1002.84
2018-12-04T01:02:17.519Z,1002.81
2018-12-04T01:02:18.119Z,1002.81
2018-12-04T01:03:11.599Z,1002.81
2018-12-04T01:03:12.171Z,1002.80
2018-12-04T01:03:12.775Z,1002.83
2018-12-04T01:03:13.372Z,1002.82
2018-12-04T01:03:13.971Z,1002.85
2018-12-04T01:03:14.572Z,1002.86
2018-12-04T01:03:15.171Z,1002.82
2018-12-04T01:03:15.771Z,1002.82
2018-12-04T01:04:09.248Z,1002.86
2018-12-04T01:04:09.824Z,1002.89
2018-12-04T01:04:10.424Z,1002.88
2018-12-04T01:04:11.023Z,1002.86
2018-12-04T01:04:11.624Z,1002.86
2018-12-04T01:04:12.223Z,1002.86
2018-12-04T01:04:12.824Z,1002.82
2018-12-04T01:04:13.423Z,1002.84
2018-12-04T01:05:06.900Z,1002.91
2018-12-04T01:05:07.475Z,1002.88
2018-12-04T01:05:08.075Z,1002.87
2018-12-04T01:05:08.675Z,1002.87
2018-12-04T01:05:09.279Z,1002.85
2018-12-04T01:05:09.875Z,1002.88
2018-12-04T01:05:10.494Z,1002.84
2018-12-04T01:05:11.075Z,1002.86
2018-12-04T01:06:04.550Z,1002.92
2018-12-04T01:06:05.127Z,1002.88
2018-12-04T01:06:05.728Z,1002.91
2018-12-04T01:06:06.355Z,1002.91
2018-12-04T01:06:06.930Z,1002.94
2018-12-04T01:06:07.526Z,1002.92
2018-12-04T01:06:08.126Z,1002.92
2018-12-04T01:06:08.726Z,1002.91
2018-12-04T01:07:03.231Z,1002.91
2018-12-04T01:07:03.802Z,1002.90
2018-12-04T01:07:04.402Z,1002.87
2018-12-04T01:07:05.004Z,1002.86
2018-12-04T01:07:05.606Z,1002.90
2018-12-04T01:07:06.202Z,1002.88
2018-12-04T01:07:06.802Z,1002.89
2018-12-04T01:07:07.402Z,1002.92
2018-12-04T01:08:00.878Z,1002.97
2018-12-04T01:08:01.455Z,1002.91
2018-12-04T01:08:02.054Z,1002.95
2018-12-04T01:08:02.655Z,1002.99
2018-12-04T01:08:03.255Z,1002.95
2018-12-04T01:08:03.854Z,1002.94
2018-12-04T01:08:04.454Z,1002.97
2018-12-04T01:08:05.054Z,1002.97
2018-12-04T01:08:58.532Z,1003.04
2018-12-04T01:08:59.107Z,1003.00
2018-12-04T01:08:59.706Z,1003.04
2018-12-04T01:09:00.307Z,1003.00
2018-12-04T01:09:00.907Z,1002.99
2018-12-04T01:09:01.507Z,1003.01
2018-12-04T01:09:02.110Z,1002.99
2018-12-04T01:09:02.706Z,1002.99
2018-12-04T01:09:57.209Z,1003.07
2018-12-04T01:09:57.781Z,1003.04
2018-12-04T01:09:58.381Z,1003.01
2018-12-04T01:09:58.980Z,1003.03
2018-12-04T01:09:59.582Z,1003.05
2018-12-04T01:10:00.181Z,1003.00
2018-12-04T01:10:00.780Z,1003.05
2018-12-04T01:10:01.381Z,1003.01
2018-12-04T01:10:55.884Z,1003.07
2018-12-04T01:10:56.457Z,1003.06
2018-12-04T01:10:57.057Z,1003.04
2018-12-04T01:10:57.656Z,1003.04
2018-12-04T01:10:58.256Z,1003.02
2018-12-04T01:10:58.857Z,1003.05
2018-12-04T01:10:59.456Z,1003.01
2018-12-04T01:11:00.057Z,1003.06
2018-12-04T01:11:53.534Z,1003.08
2018-12-04T01:11:54.110Z,1003.09
2018-12-04T01:11:54.711Z,1003.13
2018-12-04T01:11:55.309Z,1003.12
2018-12-04T01:11:55.909Z,1003.11
2018-12-04T01:11:56.509Z,1003.13
2018-12-04T01:11:57.110Z,1003.11
2018-12-04T01:11:57.709Z,1003.09
2018-12-04T01:12:51.186Z,1003.11
2018-12-04T01:12:51.760Z,1003.08
2018-12-04T01:12:52.362Z,1003.07
2018-12-04T01:12:52.960Z,1003.10
2018-12-04T01:12:53.561Z,1003.09
2018-12-04T01:12:54.161Z,1003.12
2018-12-04T01:12:54.761Z,1003.10
2018-12-04T01:12:55.404Z,1003.10
2018-12-04T01:13:48.840Z,1003.10
2018-12-04T01:13:49.414Z,1003.13
2018-12-04T01:13:50.013Z,1003.08
2018-12-04T01:13:50.614Z,1003.09
2018-12-04T01:13:51.213Z,1003.10
2018-12-04T01:13:51.813Z,1003.14
2018-12-04T01:13:52.413Z,1003.10
2018-12-04T01:13:53.012Z,1003.10
2018-12-04T01:14:47.515Z,1003.17
2018-12-04T01:14:48.087Z,1003.16
2018-12-04T01:14:48.690Z,1003.18
2018-12-04T01:14:49.287Z,1003.15
2018-12-04T01:14:49.887Z,1003.18
2018-12-04T01:14:50.487Z,1003.18
2018-12-04T01:14:51.090Z,1003.18
2018-12-04T01:14:51.687Z,1003.17
2018-12-04T01:15:46.189Z,1003.18
2018-12-04T01:15:46.764Z,1003.18
2018-12-04T01:15:47.363Z,1003.15
2018-12-04T01:15:47.962Z,1003.18
2018-12-04T01:15:48.563Z,1003.17
2018-12-04T01:15:49.164Z,1003.18
2018-12-04T01:15:49.762Z,1003.18
2018-12-04T01:15:50.363Z,1003.18
2018-12-04T01:16:44.865Z,1003.22
2018-12-04T01:16:45.439Z,1003.22
2018-12-04T01:16:46.038Z,1003.24
2018-12-04T01:16:46.639Z,1003.19
2018-12-04T01:16:47.239Z,1003.18
2018-12-04T01:16:47.838Z,1003.22
2018-12-04T01:16:48.440Z,1003.23
2018-12-04T01:16:49.039Z,1003.18
2018-12-04T01:17:42.517Z,1003.25
2018-12-04T01:17:43.093Z,1003.22
2018-12-04T01:17:43.692Z,1003.23
2018-12-04T01:17:44.291Z,1003.25
2018-12-04T01:17:44.892Z,1003.18
2018-12-04T01:17:45.496Z,1003.24
2018-12-04T01:17:46.092Z,1003.23
2018-12-04T01:17:46.691Z,1003.24
2018-12-04T01:18:40.168Z,1003.29
2018-12-04T01:18:40.743Z,1003.30
2018-12-04T01:18:41.343Z,1003.29
2018-12-04T01:18:41.944Z,1003.29
2018-12-04T01:18:42.544Z,1003.26
2018-12-04T01:18:43.143Z,1003.26
2018-12-04T01:18:43.743Z,1003.26
2018-12-04T01:18:44.343Z,1003.27
2018-12-04T01:19:37.821Z,1003.25
2018-12-04T01:19:38.394Z,1003.27
2018-12-04T01:19:38.995Z,1003.31
2018-12-04T01:19:39.594Z,1003.28
2018-12-04T01:19:40.195Z,1003.26
2018-12-04T01:19:40.794Z,1003.26
2018-12-04T01:19:41.394Z,1003.25
2018-12-04T01:19:41.994Z,1003.27
2018-12-04T01:20:35.471Z,1003.34
2018-12-04T01:20:36.047Z,1003.32
2018-12-04T01:20:36.647Z,1003.33
2018-12-04T01:20:37.248Z,1003.31
2018-12-04T01:20:37.847Z,1003.32
2018-12-04T01:20:38.447Z,1003.30
2018-12-04T01:20:39.048Z,1003.30
2018-12-04T01:20:39.646Z,1003.34
2018-12-04T01:21:34.149Z,1003.29
2018-12-04T01:21:34.722Z,1003.29
2018-12-04T01:21:35.322Z,1003.30
2018-12-04T01:21:35.921Z,1003.31
2018-12-04T01:21:36.525Z,1003.33
2018-12-04T01:21:37.123Z,1003.32
2018-12-04T01:21:37.721Z,1003.31
2018-12-04T01:21:38.324Z,1003.29
2018-12-04T01:22:31.803Z,1003.35
2018-12-04T01:22:32.374Z,1003.37
2018-12-04T01:22:32.973Z,1003.36
2018-12-04T01:22:33.579Z,1003.34
2018-12-04T01:22:34.178Z,1003.36
2018-12-04T01:22:34.774Z,1003.36
2018-12-04T01:22:35.373Z,1003.35
2018-12-04T01:22:35.973Z,1003.34
2018-12-04T01:23:30.476Z,1003.36
2018-12-04T01:23:31.052Z,1003.38
2018-12-04T01:23:31.650Z,1003.39
2018-12-04T01:23:32.249Z,1003.43
2018-12-04T01:23:32.850Z,1003.34
2018-12-04T01:23:33.449Z,1003.42
2018-12-04T01:23:34.048Z,1003.34
2018-12-04T01:23:34.651Z,1003.39
2018-12-04T01:24:28.127Z,1003.42
2018-12-04T01:24:28.702Z,1003.39
2018-12-04T01:24:29.301Z,1003.40
2018-12-04T01:24:29.901Z,1003.44
2018-12-04T01:24:30.502Z,1003.41
2018-12-04T01:24:31.101Z,1003.41
2018-12-04T01:24:31.700Z,1003.43
2018-12-04T01:24:32.304Z,1003.43
2018-12-04T01:25:26.810Z,1003.40
2018-12-04T01:25:27.377Z,1003.42
2018-12-04T01:25:27.977Z,1003.43
2018-12-04T01:25:28.577Z,1003.44
2018-12-04T01:25:29.176Z,1003.45
2018-12-04T01:25:29.776Z,1003.44
2018-12-04T01:25:30.378Z,1003.42
2018-12-04T01:25:31.014Z,1003.43
2018-12-04T01:26:25.479Z,1003.49
2018-12-04T01:26:26.053Z,1003.50
2018-12-04T01:26:26.658Z,1003.50
2018-12-04T01:26:27.251Z,1003.47
2018-12-04T01:26:27.851Z,1003.46
2018-12-04T01:26:28.454Z,1003.49
2018-12-04T01:26:29.051Z,1003.48
2018-12-04T01:26:29.651Z,1003.50
2018-12-04T01:27:24.154Z,1003.51
2018-12-04T01:27:24.727Z,1003.49
2018-12-04T01:27:25.329Z,1003.49
2018-12-04T01:27:25.928Z,1003.52
2018-12-04T01:27:26.528Z,1003.52
2018-12-04T01:27:27.128Z,1003.51
2018-12-04T01:27:27.728Z,1003.52
2018-12-04T01:27:28.328Z,1003.52
2018-12-04T01:28:22.831Z,1003.53
2018-12-04T01:28:23.409Z,1003.52
2018-12-04T01:28:24.005Z,1003.53
2018-12-04T01:28:24.605Z,1003.54
2018-12-04T01:28:25.202Z,1003.49
2018-12-04T01:28:25.804Z,1003.50
2018-12-04T01:28:26.402Z,1003.52
2018-12-04T01:28:27.003Z,1003.54
2018-12-04T01:29:21.506Z,1003.57
2018-12-04T01:29:22.080Z,1003.58
2018-12-04T01:29:22.683Z,1003.57
2018-12-04T01:29:23.280Z,1003.58
2018-12-04T01:29:23.879Z,1003.57
2018-12-04T01:29:24.480Z,1003.57
2018-12-04T01:29:25.079Z,1003.58
2018-12-04T01:29:25.682Z,1003.59
2018-12-04T01:30:20.181Z,1003.54
2018-12-04T01:30:20.756Z,1003.58
2018-12-04T01:30:21.355Z,1003.57
2018-12-04T01:30:21.954Z,1003.56
2018-12-04T01:30:22.554Z,1003.58
2018-12-04T01:30:23.155Z,1003.56
2018-12-04T01:30:23.754Z,1003.55
2018-12-04T01:30:24.354Z,1003.55
2018-12-04T01:31:18.856Z,1003.61
2018-12-04T01:31:19.430Z,1003.62
2018-12-04T01:31:20.031Z,1003.62
2018-12-04T01:31:20.633Z,1003.61
2018-12-04T01:31:21.230Z,1003.62
2018-12-04T01:31:21.829Z,1003.64
2018-12-04T01:31:22.432Z,1003.57
2018-12-04T01:31:23.029Z,1003.61
2018-12-04T01:32:16.509Z,1003.65
2018-12-04T01:32:17.083Z,1003.63
2018-12-04T01:32:17.683Z,1003.59
2018-12-04T01:32:18.283Z,1003.64
2018-12-04T01:32:18.882Z,1003.64
2018-12-04T01:32:19.486Z,1003.64
2018-12-04T01:32:20.083Z,1003.59
2018-12-04T01:32:20.682Z,1003.61
2018-12-04T01:33:26.858Z,1003.61
2018-12-04T01:33:27.431Z,1003.60
2018-12-04T01:33:28.032Z,1003.59
2018-12-04T01:33:28.631Z,1003.57
2018-12-04T01:33:29.242Z,1003.64
2018-12-04T01:33:29.830Z,1003.64
2018-12-04T01:33:30.431Z,1003.63
2018-12-04T01:33:31.030Z,1003.63
2018-12-04T01:34:24.509Z,1003.66
2018-12-04T01:34:25.085Z,1003.68
2018-12-04T01:34:25.683Z,1003.67
2018-12-04T01:34:26.284Z,1003.69
2018-12-04T01:34:26.884Z,1003.65
2018-12-04T01:34:27.484Z,1003.65
2018-12-04T01:34:28.083Z,1003.69
2018-12-04T01:34:28.684Z,1003.68
2018-12-04T01:35:22.161Z,1003.61
2018-12-04T01:35:22.736Z,1003.63
2018-12-04T01:35:23.339Z,1003.68
2018-12-04T01:35:23.936Z,1003.66
2018-12-04T01:35:24.536Z,1003.67
2018-12-04T01:35:25.135Z,1003.67
2018-12-04T01:35:25.735Z,1003.69
2018-12-04T01:35:26.389Z,1003.67
2018-12-04T01:36:19.813Z,1003.67
2018-12-04T01:36:20.389Z,1003.66
2018-12-04T01:36:20.989Z,1003.65
2018-12-04T01:36:21.588Z,1003.62
2018-12-04T01:36:22.188Z,1003.63
2018-12-04T01:36:22.787Z,1003.63
2018-12-04T01:36:23.387Z,1003.64
2018-12-04T01:36:23.988Z,1003.65
2018-12-04T01:37:18.495Z,1003.73
2018-12-04T01:37:19.063Z,1003.76
2018-12-04T01:37:19.661Z,1003.72
2018-12-04T01:37:20.262Z,1003.75
2018-12-04T01:37:20.861Z,1003.74
2018-12-04T01:37:21.463Z,1003.72
2018-12-04T01:37:22.062Z,1003.74
2018-12-04T01:37:22.662Z,1003.72
2018-12-04T01:38:16.141Z,1003.75
2018-12-04T01:38:16.715Z,1003.73
2018-12-04T01:38:17.317Z,1003.74
2018-12-04T01:38:17.915Z,1003.73
2018-12-04T01:38:18.516Z,1003.77
2018-12-04T01:38:19.117Z,1003.76
2018-12-04T01:38:19.719Z,1003.73
2018-12-04T01:38:20.318Z,1003.78
2018-12-04T01:39:13.792Z,1003.78
2018-12-04T01:39:14.367Z,1003.79
2018-12-04T01:39:14.967Z,1003.75
2018-12-04T01:39:15.567Z,1003.76
2018-12-04T01:39:16.166Z,1003.80
2018-12-04T01:39:16.766Z,1003.78
2018-12-04T01:39:17.367Z,1003.82
2018-12-04T01:39:17.966Z,1003.77
2018-12-04T01:40:12.468Z,1003.81
2018-12-04T01:40:13.042Z,1003.81
2018-12-04T01:40:13.644Z,1003.78
2018-12-04T01:40:14.242Z,1003.80
2018-12-04T01:40:14.842Z,1003.80
2018-12-04T01:40:15.442Z,1003.78
2018-12-04T01:40:16.042Z,1003.78
2018-12-04T01:40:16.642Z,1003.83
2018-12-04T01:41:10.119Z,1003.88
2018-12-04T01:41:10.695Z,1003.87
2018-12-04T01:41:11.294Z,1003.89
2018-12-04T01:41:11.896Z,1003.87
2018-12-04T01:41:12.501Z,1003.87
2018-12-04T01:41:13.095Z,1003.86
2018-12-04T01:41:13.694Z,1003.87
2018-12-04T01:41:14.338Z,1003.90
2018-12-04T01:42:08.797Z,1003.83
2018-12-04T01:42:09.370Z,1003.85
2018-12-04T01:42:09.969Z,1003.89
2018-12-04T01:42:10.569Z,1003.86
2018-12-04T01:42:11.170Z,1003.82
2018-12-04T01:42:11.770Z,1003.84
2018-12-04T01:42:12.369Z,1003.84
2018-12-04T01:42:12.968Z,1003.88
2018-12-04T01:43:06.447Z,1003.88
2018-12-04T01:43:07.022Z,1003.86
2018-12-04T01:43:07.623Z,1003.87
2018-12-04T01:43:08.221Z,1003.85
2018-12-04T01:43:08.823Z,1003.87
2018-12-04T01:43:09.424Z,1003.90
2018-12-04T01:43:10.021Z,1003.85
2018-12-04T01:43:10.625Z,1003.88
2018-12-04T01:44:05.128Z,1003.92
2018-12-04T01:44:05.698Z,1003.92
2018-12-04T01:44:06.299Z,1003.91
2018-12-04T01:44:06.897Z,1003.91
2018-12-04T01:44:07.496Z,1003.87
2018-12-04T01:44:08.098Z,1003.92
2018-12-04T01:44:08.702Z,1003.87
2018-12-04T01:44:09.296Z,1003.85
2018-12-04T01:45:03.799Z,1003.94
2018-12-04T01:45:04.373Z,1003.90
2018-12-04T01:45:04.972Z,1003.90
2018-12-04T01:45:05.572Z,1003.92
2018-12-04T01:45:06.173Z,1003.91
2018-12-04T01:45:06.771Z,1003.92
2018-12-04T01:45:07.372Z,1003.94
2018-12-04T01:45:07.971Z,1003.89
2018-12-04T01:46:01.449Z,1003.95
2018-12-04T01:46:02.025Z,1003.94
2018-12-04T01:46:02.625Z,1003.95
2018-12-04T01:46:03.225Z,1003.94
2018-12-04T01:46:03.824Z,1003.92
2018-12-04T01:46:04.426Z,1003.96
2018-12-04T01:46:05.024Z,1003.92
2018-12-04T01:46:05.623Z,1003.93
2018-12-04T01:47:00.127Z,1003.93
2018-12-04T01:47:00.699Z,1003.97
2018-12-04T01:47:01.299Z,1003.96
2018-12-04T01:47:01.900Z,1003.94
2018-12-04T01:47:02.499Z,1003.93
2018-12-04T01:47:03.099Z,1003.93
2018-12-04T01:47:03.699Z,1003.96
2018-12-04T01:47:04.299Z,1003.95
2018-12-04T01:47:57.779Z,1003.93
2018-12-04T01:47:58.356Z,1003.95
2018-12-04T01:47:58.951Z,1003.96
2018-12-04T01:47:59.551Z,1003.95
2018-12-04T01:48:00.151Z,1003.99
2018-12-04T01:48:00.751Z,1003.98
2018-12-04T01:48:01.350Z,1003.96
2018-12-04T01:48:01.950Z,1003.99
2018-12-04T01:48:56.455Z,1003.95
2018-12-04T01:48:57.037Z,1003.99
2018-12-04T01:48:57.627Z,1003.99
2018-12-04T01:48:58.230Z,1003.96
2018-12-04T01:48:58.826Z,1004.01
2018-12-04T01:48:59.427Z,1003.98
2018-12-04T01:49:00.027Z,1003.96
2018-12-04T01:49:00.626Z,1003.98
2018-12-04T01:49:55.131Z,1004.01
2018-12-04T01:49:55.703Z,1004.03
2018-12-04T01:49:56.302Z,1004.02
2018-12-04T01:49:56.903Z,1004.01
2018-12-04T01:49:57.503Z,1003.97
2018-12-04T01:49:58.102Z,1003.99
2018-12-04T01:49:58.703Z,1003.99
2018-12-04T01:49:59.301Z,1003.98
2018-12-04T01:50:53.804Z,1004.00
2018-12-04T01:50:54.379Z,1004.01
2018-12-04T01:50:54.978Z,1004.02
2018-12-04T01:50:55.579Z,1004.05
2018-12-04T01:50:56.178Z,1004.06
2018-12-04T01:50:56.778Z,1004.05
2018-12-04T01:50:57.379Z,1004.01
2018-12-04T01:50:57.979Z,1004.04
2018-12-04T01:51:52.484Z,1004.07
2018-12-04T01:51:53.054Z,1004.07
2018-12-04T01:51:53.655Z,1004.08
2018-12-04T01:51:54.254Z,1004.09
2018-12-04T01:51:54.854Z,1004.09
2018-12-04T01:51:55.457Z,1004.10
2018-12-04T01:51:56.054Z,1004.09
2018-12-04T01:51:56.653Z,1004.08
2018-12-04T01:52:51.157Z,1004.10
2018-12-04T01:52:51.730Z,1004.07
2018-12-04T01:52:52.330Z,1004.08
2018-12-04T01:52:52.931Z,1004.11
2018-12-04T01:52:53.531Z,1004.09
2018-12-04T01:52:54.130Z,1004.09
2018-12-04T01:52:54.730Z,1004.11
2018-12-04T01:52:55.330Z,1004.10
2018-12-04T01:53:48.808Z,1004.12
2018-12-04T01:53:49.382Z,1004.10
2018-12-04T01:53:49.983Z,1004.09
2018-12-04T01:53:50.583Z,1004.10
2018-12-04T01:53:51.182Z,1004.08
2018-12-04T01:53:51.783Z,1004.12
2018-12-04T01:53:52.382Z,1004.11
2018-12-04T01:53:52.982Z,1004.09
2018-12-04T01:54:47.485Z,1004.16
2018-12-04T01:54:48.060Z,1004.13
2018-12-04T01:54:48.657Z,1004.12
2018-12-04T01:54:49.258Z,1004.08
2018-12-04T01:54:49.858Z,1004.15
2018-12-04T01:54:50.457Z,1004.17